sensor_id;sensor_type;location;lat;lon;timestamp;P1;durP1;ratioP1;P2;durP2;ratioP2
71771;SDS011;59606;52.138;5.424;2023-03-14T00:00:56;15.23;;;3.38;;
71771;SDS011;59606;52.138;5.424;2023-03-14T00:03:22;14.10;;;4.27;;
71771;SDS011;59606;52.138;5.424;2023-03-14T00:05:50;18.45;;;4.85;;
71771;SDS011;59606;52.138;5.424;2023-03-14T00:08:16;13.75;;;4.32;;
71771;SDS011;59606;52.138;5.424;2023-03-14T00:10:43;19.35;;;3.90;;
71771;SDS011;59606;52.138;5.424;2023-03-14T00:13:10;14.65;;;3.75;;
71771;SDS011;59606;52.138;5.424;2023-03-14T00:15:36;12.10;;;3.47;;
71771;SDS011;59606;52.138;5.424;2023-03-14T00:18:04;16.33;;;3.63;;
71771;SDS011;59606;52.138;5.424;2023-03-14T00:20:30;17.30;;;3.95;;
71771;SDS011;59606;52.138;5.424;2023-03-14T00:22:57;19.85;;;3.55;;
71771;SDS011;59606;52.138;5.424;2023-03-14T00:25:23;14.95;;;4.35;;
71771;SDS011;59606;52.138;5.424;2023-03-14T00:27:50;18.83;;;3.47;;
71771;SDS011;59606;52.138;5.424;2023-03-14T00:30:18;11.27;;;2.65;;
71771;SDS011;59606;52.138;5.424;2023-03-14T00:32:44;9.90;;;2.95;;
71771;SDS011;59606;52.138;5.424;2023-03-14T00:35:11;13.88;;;3.13;;
71771;SDS011;59606;52.138;5.424;2023-03-14T00:37:37;10.60;;;2.55;;
71771;SDS011;59606;52.138;5.424;2023-03-14T00:40:06;10.67;;;2.27;;
71771;SDS011;59606;52.138;5.424;2023-03-14T00:42:34;9.48;;;2.28;;
71771;SDS011;59606;52.138;5.424;2023-03-14T00:45:00;5.30;;;1.60;;
71771;SDS011;59606;52.138;5.424;2023-03-14T00:47:27;10.25;;;1.95;;
71771;SDS011;59606;52.138;5.424;2023-03-14T00:49:53;12.27;;;1.88;;
71771;SDS011;59606;52.138;5.424;2023-03-14T00:52:20;11.77;;;1.47;;
71771;SDS011;59606;52.138;5.424;2023-03-14T00:54:46;6.45;;;1.42;;
71771;SDS011;59606;52.138;5.424;2023-03-14T00:57:13;11.98;;;1.27;;
71771;SDS011;59606;52.138;5.424;2023-03-14T00:59:39;8.45;;;1.58;;
71771;SDS011;59606;52.138;5.424;2023-03-14T01:02:08;5.15;;;1.33;;
71771;SDS011;59606;52.138;5.424;2023-03-14T01:04:35;8.07;;;1.47;;
71771;SDS011;59606;52.138;5.424;2023-03-14T01:07:03;12.98;;;2.05;;
71771;SDS011;59606;52.138;5.424;2023-03-14T01:09:30;5.60;;;1.17;;
71771;SDS011;59606;52.138;5.424;2023-03-14T01:11:56;12.57;;;2.45;;
71771;SDS011;59606;52.138;5.424;2023-03-14T01:14:23;11.20;;;2.38;;
71771;SDS011;59606;52.138;5.424;2023-03-14T01:16:49;9.90;;;2.10;;
71771;SDS011;59606;52.138;5.424;2023-03-14T01:19:16;3.97;;;1.10;;
71771;SDS011;59606;52.138;5.424;2023-03-14T01:21:42;13.52;;;2.15;;
71771;SDS011;59606;52.138;5.424;2023-03-14T01:24:10;12.32;;;1.50;;
71771;SDS011;59606;52.138;5.424;2023-03-14T01:26:37;10.27;;;1.50;;
71771;SDS011;59606;52.138;5.424;2023-03-14T01:29:04;7.43;;;1.40;;
71771;SDS011;59606;52.138;5.424;2023-03-14T01:31:30;6.30;;;1.10;;
71771;SDS011;59606;52.138;5.424;2023-03-14T01:33:57;8.05;;;1.35;;
71771;SDS011;59606;52.138;5.424;2023-03-14T01:36:23;5.38;;;1.45;;
71771;SDS011;59606;52.138;5.424;2023-03-14T01:38:50;8.38;;;1.23;;
71771;SDS011;59606;52.138;5.424;2023-03-14T01:41:18;11.30;;;1.10;;
71771;SDS011;59606;52.138;5.424;2023-03-14T01:43:47;7.38;;;1.10;;
71771;SDS011;59606;52.138;5.424;2023-03-14T01:54:15;9.33;;;1.77;;
71771;SDS011;59606;52.138;5.424;2023-03-14T01:56:53;7.90;;;1.10;;
71771;SDS011;59606;52.138;5.424;2023-03-14T01:59:30;6.50;;;1.05;;
71771;SDS011;59606;52.138;5.424;2023-03-14T02:01:58;8.55;;;1.13;;
71771;SDS011;59606;52.138;5.424;2023-03-14T02:04:27;8.85;;;1.10;;
71771;SDS011;59606;52.138;5.424;2023-03-14T02:07:00;6.03;;;1.20;;
71771;SDS011;59606;52.138;5.424;2023-03-14T02:09:32;6.82;;;1.10;;
71771;SDS011;59606;52.138;5.424;2023-03-14T02:11:58;7.45;;;1.20;;
71771;SDS011;59606;52.138;5.424;2023-03-14T02:14:28;11.40;;;1.30;;
71771;SDS011;59606;52.138;5.424;2023-03-14T02:16:57;6.90;;;1.42;;
71771;SDS011;59606;52.138;5.424;2023-03-14T02:22:17;4.72;;;1.08;;
71771;SDS011;59606;52.138;5.424;2023-03-14T02:27:17;10.80;;;1.33;;
71771;SDS011;59606;52.138;5.424;2023-03-14T02:29:52;10.07;;;1.05;;
71771;SDS011;59606;52.138;5.424;2023-03-14T02:32:22;6.70;;;1.07;;
71771;SDS011;59606;52.138;5.424;2023-03-14T02:34:54;5.63;;;0.88;;
71771;SDS011;59606;52.138;5.424;2023-03-14T02:37:24;5.43;;;1.05;;
71771;SDS011;59606;52.138;5.424;2023-03-14T02:39:58;5.90;;;0.90;;
71771;SDS011;59606;52.138;5.424;2023-03-14T02:42:24;4.88;;;0.80;;
71771;SDS011;59606;52.138;5.424;2023-03-14T02:44:52;10.47;;;1.33;;
71771;SDS011;59606;52.138;5.424;2023-03-14T02:47:34;7.43;;;1.10;;
71771;SDS011;59606;52.138;5.424;2023-03-14T02:50:10;8.20;;;0.98;;
71771;SDS011;59606;52.138;5.424;2023-03-14T02:52:40;7.65;;;1.35;;
71771;SDS011;59606;52.138;5.424;2023-03-14T02:55:06;7.63;;;1.17;;
71771;SDS011;59606;52.138;5.424;2023-03-14T02:57:34;6.73;;;1.43;;
71771;SDS011;59606;52.138;5.424;2023-03-14T03:00:00;4.00;;;0.80;;
71771;SDS011;59606;52.138;5.424;2023-03-14T03:02:30;7.55;;;1.67;;
71771;SDS011;59606;52.138;5.424;2023-03-14T03:04:57;5.93;;;1.38;;
71771;SDS011;59606;52.138;5.424;2023-03-14T03:07:24;5.85;;;1.25;;
71771;SDS011;59606;52.138;5.424;2023-03-14T03:09:50;7.30;;;1.67;;
71771;SDS011;59606;52.138;5.424;2023-03-14T03:12:17;9.60;;;1.48;;
71771;SDS011;59606;52.138;5.424;2023-03-14T03:14:43;8.40;;;1.40;;
71771;SDS011;59606;52.138;5.424;2023-03-14T03:17:10;4.40;;;1.50;;
71771;SDS011;59606;52.138;5.424;2023-03-14T03:19:37;4.35;;;1.40;;
71771;SDS011;59606;52.138;5.424;2023-03-14T03:22:03;5.33;;;1.43;;
71771;SDS011;59606;52.138;5.424;2023-03-14T03:24:30;7.57;;;1.95;;
71771;SDS011;59606;52.138;5.424;2023-03-14T03:26:56;9.10;;;1.60;;
71771;SDS011;59606;52.138;5.424;2023-03-14T03:29:22;10.52;;;2.20;;
71771;SDS011;59606;52.138;5.424;2023-03-14T03:31:49;10.35;;;1.70;;
71771;SDS011;59606;52.138;5.424;2023-03-14T03:34:15;11.60;;;2.63;;
71771;SDS011;59606;52.138;5.424;2023-03-14T03:36:42;7.70;;;1.35;;
71771;SDS011;59606;52.138;5.424;2023-03-14T03:39:08;11.02;;;1.88;;
71771;SDS011;59606;52.138;5.424;2023-03-14T03:41:35;4.38;;;1.15;;
71771;SDS011;59606;52.138;5.424;2023-03-14T03:44:01;8.65;;;1.70;;
71771;SDS011;59606;52.138;5.424;2023-03-14T03:46:28;9.93;;;1.53;;
71771;SDS011;59606;52.138;5.424;2023-03-14T03:48:55;10.20;;;1.75;;
71771;SDS011;59606;52.138;5.424;2023-03-14T03:51:22;7.25;;;1.48;;
71771;SDS011;59606;52.138;5.424;2023-03-14T03:53:49;12.20;;;2.20;;
71771;SDS011;59606;52.138;5.424;2023-03-14T03:56:16;6.53;;;1.92;;
71771;SDS011;59606;52.138;5.424;2023-03-14T03:58:42;7.13;;;1.80;;
71771;SDS011;59606;52.138;5.424;2023-03-14T04:01:09;10.60;;;1.38;;
71771;SDS011;59606;52.138;5.424;2023-03-14T04:03:37;7.32;;;1.63;;
71771;SDS011;59606;52.138;5.424;2023-03-14T04:06:08;10.07;;;1.40;;
71771;SDS011;59606;52.138;5.424;2023-03-14T04:08:37;10.48;;;1.73;;
71771;SDS011;59606;52.138;5.424;2023-03-14T04:11:03;4.57;;;1.53;;
71771;SDS011;59606;52.138;5.424;2023-03-14T04:13:30;11.23;;;1.67;;
71771;SDS011;59606;52.138;5.424;2023-03-14T04:15:57;6.13;;;1.60;;
71771;SDS011;59606;52.138;5.424;2023-03-14T04:18:23;9.20;;;1.63;;
71771;SDS011;59606;52.138;5.424;2023-03-14T04:20:54;5.55;;;1.33;;
71771;SDS011;59606;52.138;5.424;2023-03-14T04:23:21;9.57;;;1.50;;
71771;SDS011;59606;52.138;5.424;2023-03-14T04:25:52;4.43;;;1.77;;
71771;SDS011;59606;52.138;5.424;2023-03-14T04:28:19;10.93;;;1.33;;
71771;SDS011;59606;52.138;5.424;2023-03-14T04:30:45;5.90;;;1.35;;
71771;SDS011;59606;52.138;5.424;2023-03-14T04:33:12;7.82;;;1.17;;
71771;SDS011;59606;52.138;5.424;2023-03-14T04:35:43;8.07;;;1.30;;
71771;SDS011;59606;52.138;5.424;2023-03-14T04:38:10;7.13;;;1.10;;
71771;SDS011;59606;52.138;5.424;2023-03-14T04:40:38;4.35;;;1.20;;
71771;SDS011;59606;52.138;5.424;2023-03-14T04:43:06;5.72;;;1.45;;
71771;SDS011;59606;52.138;5.424;2023-03-14T04:45:35;6.30;;;1.25;;
71771;SDS011;59606;52.138;5.424;2023-03-14T04:48:02;11.87;;;2.17;;
71771;SDS011;59606;52.138;5.424;2023-03-14T04:50:28;10.80;;;1.50;;
71771;SDS011;59606;52.138;5.424;2023-03-14T04:52:55;5.97;;;1.20;;
71771;SDS011;59606;52.138;5.424;2023-03-14T04:55:21;9.40;;;1.40;;
71771;SDS011;59606;52.138;5.424;2023-03-14T04:57:49;5.75;;;1.10;;
71771;SDS011;59606;52.138;5.424;2023-03-14T05:00:16;10.00;;;1.77;;
71771;SDS011;59606;52.138;5.424;2023-03-14T05:02:46;9.02;;;2.03;;
71771;SDS011;59606;52.138;5.424;2023-03-14T05:05:12;6.75;;;1.42;;
71771;SDS011;59606;52.138;5.424;2023-03-14T05:07:39;5.97;;;1.15;;
71771;SDS011;59606;52.138;5.424;2023-03-14T05:10:05;9.10;;;1.50;;
71771;SDS011;59606;52.138;5.424;2023-03-14T05:12:32;4.10;;;1.43;;
71771;SDS011;59606;52.138;5.424;2023-03-14T05:14:58;5.97;;;1.45;;
71771;SDS011;59606;52.138;5.424;2023-03-14T05:17:25;8.07;;;1.88;;
71771;SDS011;59606;52.138;5.424;2023-03-14T05:19:51;5.88;;;1.17;;
71771;SDS011;59606;52.138;5.424;2023-03-14T05:22:19;10.90;;;2.85;;
71771;SDS011;59606;52.138;5.424;2023-03-14T05:24:45;36.90;;;15.83;;
71771;SDS011;59606;52.138;5.424;2023-03-14T05:27:12;38.10;;;15.90;;
71771;SDS011;59606;52.138;5.424;2023-03-14T05:29:39;27.55;;;9.65;;
71771;SDS011;59606;52.138;5.424;2023-03-14T05:32:06;40.22;;;19.98;;
71771;SDS011;59606;52.138;5.424;2023-03-14T05:34:32;12.70;;;5.18;;
71771;SDS011;59606;52.138;5.424;2023-03-14T05:36:58;12.13;;;5.20;;
71771;SDS011;59606;52.138;5.424;2023-03-14T05:39:25;9.85;;;4.15;;
71771;SDS011;59606;52.138;5.424;2023-03-14T05:41:51;10.20;;;6.22;;
71771;SDS011;59606;52.138;5.424;2023-03-14T05:44:20;16.48;;;10.77;;
71771;SDS011;59606;52.138;5.424;2023-03-14T05:46:46;16.67;;;7.00;;
71771;SDS011;59606;52.138;5.424;2023-03-14T05:49:13;11.13;;;7.27;;
71771;SDS011;59606;52.138;5.424;2023-03-14T05:51:39;10.18;;;6.25;;
71771;SDS011;59606;52.138;5.424;2023-03-14T05:54:06;10.07;;;6.25;;
71771;SDS011;59606;52.138;5.424;2023-03-14T05:56:32;12.02;;;4.68;;
71771;SDS011;59606;52.138;5.424;2023-03-14T05:58:59;10.65;;;3.03;;
71771;SDS011;59606;52.138;5.424;2023-03-14T06:01:28;9.00;;;4.10;;
71771;SDS011;59606;52.138;5.424;2023-03-14T06:03:55;9.05;;;2.83;;
71771;SDS011;59606;52.138;5.424;2023-03-14T06:06:22;10.43;;;5.10;;
71771;SDS011;59606;52.138;5.424;2023-03-14T06:08:48;6.50;;;2.35;;
71771;SDS011;59606;52.138;5.424;2023-03-14T06:11:16;7.75;;;2.35;;
71771;SDS011;59606;52.138;5.424;2023-03-14T06:13:42;9.40;;;2.70;;
71771;SDS011;59606;52.138;5.424;2023-03-14T06:16:09;7.78;;;2.13;;
71771;SDS011;59606;52.138;5.424;2023-03-14T06:18:35;6.05;;;2.42;;
71771;SDS011;59606;52.138;5.424;2023-03-14T06:21:02;8.30;;;2.83;;
71771;SDS011;59606;52.138;5.424;2023-03-14T06:23:28;7.68;;;3.00;;
71771;SDS011;59606;52.138;5.424;2023-03-14T06:25:56;7.27;;;2.80;;
71771;SDS011;59606;52.138;5.424;2023-03-14T06:28:23;6.45;;;2.58;;
71771;SDS011;59606;52.138;5.424;2023-03-14T06:30:51;6.22;;;2.40;;
71771;SDS011;59606;52.138;5.424;2023-03-14T06:33:18;11.35;;;3.05;;
71771;SDS011;59606;52.138;5.424;2023-03-14T06:35:44;12.48;;;3.67;;
71771;SDS011;59606;52.138;5.424;2023-03-14T06:38:11;11.33;;;3.30;;
71771;SDS011;59606;52.138;5.424;2023-03-14T06:40:37;8.70;;;2.63;;
71771;SDS011;59606;52.138;5.424;2023-03-14T06:43:04;11.25;;;3.03;;
71771;SDS011;59606;52.138;5.424;2023-03-14T06:45:30;9.20;;;2.88;;
71771;SDS011;59606;52.138;5.424;2023-03-14T06:47:57;9.82;;;2.58;;
71771;SDS011;59606;52.138;5.424;2023-03-14T06:50:23;6.10;;;2.00;;
71771;SDS011;59606;52.138;5.424;2023-03-14T06:52:50;3.10;;;0.80;;
71771;SDS011;59606;52.138;5.424;2023-03-14T06:55:17;1.08;;;0.70;;
71771;SDS011;59606;52.138;5.424;2023-03-14T06:57:46;1.65;;;0.50;;
71771;SDS011;59606;52.138;5.424;2023-03-14T07:00:13;0.93;;;0.45;;
71771;SDS011;59606;52.138;5.424;2023-03-14T07:02:41;0.90;;;0.40;;
71771;SDS011;59606;52.138;5.424;2023-03-14T07:05:08;2.53;;;0.40;;
71771;SDS011;59606;52.138;5.424;2023-03-14T07:07:36;2.35;;;0.52;;
71771;SDS011;59606;52.138;5.424;2023-03-14T07:10:03;3.67;;;0.60;;
71771;SDS011;59606;52.138;5.424;2023-03-14T07:12:29;1.30;;;0.38;;
71771;SDS011;59606;52.138;5.424;2023-03-14T07:14:56;2.37;;;0.87;;
71771;SDS011;59606;52.138;5.424;2023-03-14T07:17:28;1.25;;;0.60;;
71771;SDS011;59606;52.138;5.424;2023-03-14T07:19:54;3.08;;;0.73;;
71771;SDS011;59606;52.138;5.424;2023-03-14T07:22:21;1.30;;;0.60;;
71771;SDS011;59606;52.138;5.424;2023-03-14T07:24:47;1.63;;;0.55;;
71771;SDS011;59606;52.138;5.424;2023-03-14T07:27:14;3.80;;;0.70;;
71771;SDS011;59606;52.138;5.424;2023-03-14T07:29:40;3.05;;;0.50;;
71771;SDS011;59606;52.138;5.424;2023-03-14T07:32:07;2.80;;;0.60;;
71771;SDS011;59606;52.138;5.424;2023-03-14T07:34:34;1.35;;;0.50;;
71771;SDS011;59606;52.138;5.424;2023-03-14T07:37:00;7.75;;;0.90;;
71771;SDS011;59606;52.138;5.424;2023-03-14T07:39:27;1.60;;;0.60;;
71771;SDS011;59606;52.138;5.424;2023-03-14T07:41:53;0.98;;;0.57;;
71771;SDS011;59606;52.138;5.424;2023-03-14T07:44:20;3.15;;;0.50;;
71771;SDS011;59606;52.138;5.424;2023-03-14T07:46:47;1.70;;;0.30;;
71771;SDS011;59606;52.138;5.424;2023-03-14T07:49:13;3.05;;;0.52;;
71771;SDS011;59606;52.138;5.424;2023-03-14T07:51:40;0.90;;;0.53;;
71771;SDS011;59606;52.138;5.424;2023-03-14T07:54:06;2.63;;;0.57;;
71771;SDS011;59606;52.138;5.424;2023-03-14T07:56:33;5.22;;;0.47;;
71771;SDS011;59606;52.138;5.424;2023-03-14T07:59:00;2.25;;;0.40;;
71771;SDS011;59606;52.138;5.424;2023-03-14T08:01:27;1.90;;;0.75;;
71771;SDS011;59606;52.138;5.424;2023-03-14T08:03:53;5.43;;;0.73;;
71771;SDS011;59606;52.138;5.424;2023-03-14T08:06:20;4.07;;;0.40;;
71771;SDS011;59606;52.138;5.424;2023-03-14T08:08:46;4.22;;;0.35;;
71771;SDS011;59606;52.138;5.424;2023-03-14T08:11:13;5.43;;;0.43;;
71771;SDS011;59606;52.138;5.424;2023-03-14T08:13:39;8.23;;;0.85;;
71771;SDS011;59606;52.138;5.424;2023-03-14T08:16:06;7.40;;;0.67;;
71771;SDS011;59606;52.138;5.424;2023-03-14T08:18:33;6.40;;;0.65;;
71771;SDS011;59606;52.138;5.424;2023-03-14T08:20:59;10.88;;;0.80;;
71771;SDS011;59606;52.138;5.424;2023-03-14T08:23:26;3.45;;;0.38;;
71771;SDS011;59606;52.138;5.424;2023-03-14T08:25:52;2.80;;;0.30;;
71771;SDS011;59606;52.138;5.424;2023-03-14T08:28:18;2.50;;;0.37;;
71771;SDS011;59606;52.138;5.424;2023-03-14T08:30:46;2.20;;;0.40;;
71771;SDS011;59606;52.138;5.424;2023-03-14T08:33:13;2.92;;;0.30;;
71771;SDS011;59606;52.138;5.424;2023-03-14T08:35:39;3.40;;;0.30;;
71771;SDS011;59606;52.138;5.424;2023-03-14T08:38:06;0.77;;;0.30;;
71771;SDS011;59606;52.138;5.424;2023-03-14T08:40:32;1.13;;;0.50;;
71771;SDS011;59606;52.138;5.424;2023-03-14T08:42:59;4.03;;;1.52;;
71771;SDS011;59606;52.138;5.424;2023-03-14T08:45:25;3.28;;;0.75;;
71771;SDS011;59606;52.138;5.424;2023-03-14T08:47:52;4.55;;;0.28;;
71771;SDS011;59606;52.138;5.424;2023-03-14T08:50:18;1.25;;;0.38;;
71771;SDS011;59606;52.138;5.424;2023-03-14T08:52:45;3.70;;;0.37;;
71771;SDS011;59606;52.138;5.424;2023-03-14T08:55:11;5.18;;;0.68;;
71771;SDS011;59606;52.138;5.424;2023-03-14T08:57:38;5.00;;;0.47;;
71771;SDS011;59606;52.138;5.424;2023-03-14T09:00:04;1.63;;;0.28;;
71771;SDS011;59606;52.138;5.424;2023-03-14T09:02:38;5.10;;;0.35;;
71771;SDS011;59606;52.138;5.424;2023-03-14T09:05:04;2.03;;;0.40;;
71771;SDS011;59606;52.138;5.424;2023-03-14T09:07:31;5.65;;;0.55;;
71771;SDS011;59606;52.138;5.424;2023-03-14T09:09:58;6.07;;;0.77;;
71771;SDS011;59606;52.138;5.424;2023-03-14T09:12:24;2.33;;;0.50;;
71771;SDS011;59606;52.138;5.424;2023-03-14T09:14:51;6.60;;;1.00;;
71771;SDS011;59606;52.138;5.424;2023-03-14T09:17:17;8.30;;;0.60;;
71771;SDS011;59606;52.138;5.424;2023-03-14T09:19:44;6.43;;;0.50;;
71771;SDS011;59606;52.138;5.424;2023-03-14T09:22:10;8.85;;;0.98;;
71771;SDS011;59606;52.138;5.424;2023-03-14T09:24:37;1.92;;;0.35;;
71771;SDS011;59606;52.138;5.424;2023-03-14T09:27:03;6.50;;;0.85;;
71771;SDS011;59606;52.138;5.424;2023-03-14T09:29:30;5.93;;;0.57;;
71771;SDS011;59606;52.138;5.424;2023-03-14T09:31:57;7.18;;;0.90;;
71771;SDS011;59606;52.138;5.424;2023-03-14T09:34:24;4.55;;;0.63;;
71771;SDS011;59606;52.138;5.424;2023-03-14T09:36:51;9.18;;;0.90;;
71771;SDS011;59606;52.138;5.424;2023-03-14T09:39:18;6.65;;;0.68;;
71771;SDS011;59606;52.138;5.424;2023-03-14T09:41:46;7.37;;;1.07;;
71771;SDS011;59606;52.138;5.424;2023-03-14T09:44:23;10.13;;;1.13;;
71771;SDS011;59606;52.138;5.424;2023-03-14T09:46:54;7.95;;;1.27;;
71771;SDS011;59606;52.138;5.424;2023-03-14T09:49:37;10.52;;;1.38;;
71771;SDS011;59606;52.138;5.424;2023-03-14T09:52:17;15.30;;;1.38;;
71771;SDS011;59606;52.138;5.424;2023-03-14T09:54:50;11.47;;;1.53;;
71771;SDS011;59606;52.138;5.424;2023-03-14T09:57:19;12.15;;;1.25;;
71771;SDS011;59606;52.138;5.424;2023-03-14T09:59:50;9.63;;;1.20;;
71771;SDS011;59606;52.138;5.424;2023-03-14T10:02:20;6.85;;;1.13;;
71771;SDS011;59606;52.138;5.424;2023-03-14T10:04:52;13.48;;;1.50;;
71771;SDS011;59606;52.138;5.424;2023-03-14T10:07:23;18.37;;;2.13;;
71771;SDS011;59606;52.138;5.424;2023-03-14T10:09:55;9.77;;;1.27;;
71771;SDS011;59606;52.138;5.424;2023-03-14T10:12:33;12.25;;;1.38;;
71771;SDS011;59606;52.138;5.424;2023-03-14T10:15:04;12.05;;;1.75;;
71771;SDS011;59606;52.138;5.424;2023-03-14T10:17:42;16.17;;;1.35;;
71771;SDS011;59606;52.138;5.424;2023-03-14T10:20:25;11.33;;;1.20;;
71771;SDS011;59606;52.138;5.424;2023-03-14T10:25:42;11.05;;;1.55;;
71771;SDS011;59606;52.138;5.424;2023-03-14T10:28:22;12.57;;;1.40;;
71771;SDS011;59606;52.138;5.424;2023-03-14T10:30:54;9.88;;;1.20;;
71771;SDS011;59606;52.138;5.424;2023-03-14T10:35:55;8.13;;;1.23;;
71771;SDS011;59606;52.138;5.424;2023-03-14T10:38:27;14.52;;;1.25;;
71771;SDS011;59606;52.138;5.424;2023-03-14T10:40:56;15.27;;;1.17;;
71771;SDS011;59606;52.138;5.424;2023-03-14T10:43:30;12.77;;;1.33;;
71771;SDS011;59606;52.138;5.424;2023-03-14T10:46:07;16.50;;;1.47;;
71771;SDS011;59606;52.138;5.424;2023-03-14T10:48:37;8.60;;;1.40;;
71771;SDS011;59606;52.138;5.424;2023-03-14T10:51:09;11.80;;;1.65;;
71771;SDS011;59606;52.138;5.424;2023-03-14T10:54:22;16.05;;;2.17;;
71771;SDS011;59606;52.138;5.424;2023-03-14T10:56:33;11.48;;;1.05;;
71771;SDS011;59606;52.138;5.424;2023-03-14T10:59:03;21.33;;;2.83;;
71771;SDS011;59606;52.138;5.424;2023-03-14T11:01:41;15.80;;;1.55;;
71771;SDS011;59606;52.138;5.424;2023-03-14T11:11:48;16.70;;;1.67;;
71771;SDS011;59606;52.138;5.424;2023-03-14T11:22:14;8.55;;;1.05;;
71771;SDS011;59606;52.138;5.424;2023-03-14T11:35:45;8.90;;;0.85;;
71771;SDS011;59606;52.138;5.424;2023-03-14T11:38:28;7.87;;;1.50;;
71771;SDS011;59606;52.138;5.424;2023-03-14T11:40:56;5.10;;;1.27;;
71771;SDS011;59606;52.138;5.424;2023-03-14T11:43:28;8.93;;;0.90;;
71771;SDS011;59606;52.138;5.424;2023-03-14T11:46:01;8.13;;;1.33;;
71771;SDS011;59606;52.138;5.424;2023-03-14T11:48:42;8.55;;;1.63;;
71771;SDS011;59606;52.138;5.424;2023-03-14T11:51:23;6.60;;;1.07;;
71771;SDS011;59606;52.138;5.424;2023-03-14T11:54:04;7.47;;;1.90;;
71771;SDS011;59606;52.138;5.424;2023-03-14T11:56:48;7.40;;;1.02;;
71771;SDS011;59606;52.138;5.424;2023-03-14T11:59:21;10.05;;;0.98;;
71771;SDS011;59606;52.138;5.424;2023-03-14T12:05:25;7.33;;;1.13;;
71771;SDS011;59606;52.138;5.424;2023-03-14T12:11:18;4.22;;;0.50;;
71771;SDS011;59606;52.138;5.424;2023-03-14T12:13:28;10.80;;;1.42;;
71771;SDS011;59606;52.138;5.424;2023-03-14T12:15:59;7.22;;;1.08;;
71771;SDS011;59606;52.138;5.424;2023-03-14T12:18:34;8.57;;;1.43;;
71771;SDS011;59606;52.138;5.424;2023-03-14T12:21:06;9.45;;;1.45;;
71771;SDS011;59606;52.138;5.424;2023-03-14T12:26:15;7.80;;;0.68;;
71771;SDS011;59606;52.138;5.424;2023-03-14T12:34:10;11.10;;;1.02;;
71771;SDS011;59606;52.138;5.424;2023-03-14T12:42:13;8.93;;;1.02;;
71771;SDS011;59606;52.138;5.424;2023-03-14T12:44:50;7.43;;;0.90;;
71771;SDS011;59606;52.138;5.424;2023-03-14T12:49:50;7.50;;;0.80;;
71771;SDS011;59606;52.138;5.424;2023-03-14T12:52:22;3.42;;;0.40;;
71771;SDS011;59606;52.138;5.424;2023-03-14T12:55:05;6.70;;;1.27;;
71771;SDS011;59606;52.138;5.424;2023-03-14T12:57:52;5.73;;;0.50;;
71771;SDS011;59606;52.138;5.424;2023-03-14T13:00:40;4.45;;;0.85;;
71771;SDS011;59606;52.138;5.424;2023-03-14T13:03:18;3.20;;;0.63;;
71771;SDS011;59606;52.138;5.424;2023-03-14T13:05:55;3.90;;;0.70;;
71771;SDS011;59606;52.138;5.424;2023-03-14T13:08:42;6.28;;;0.80;;
71771;SDS011;59606;52.138;5.424;2023-03-14T13:11:12;4.90;;;0.60;;
71771;SDS011;59606;52.138;5.424;2023-03-14T13:13:45;5.82;;;0.50;;
71771;SDS011;59606;52.138;5.424;2023-03-14T13:16:17;1.75;;;0.50;;
71771;SDS011;59606;52.138;5.424;2023-03-14T13:18:47;9.95;;;0.68;;
71771;SDS011;59606;52.138;5.424;2023-03-14T13:21:16;4.53;;;0.88;;
71771;SDS011;59606;52.138;5.424;2023-03-14T13:26:26;4.00;;;1.38;;
71771;SDS011;59606;52.138;5.424;2023-03-14T13:29:07;2.80;;;0.50;;
71771;SDS011;59606;52.138;5.424;2023-03-14T13:31:35;4.40;;;1.23;;
71771;SDS011;59606;52.138;5.424;2023-03-14T13:34:04;3.22;;;0.65;;
71771;SDS011;59606;52.138;5.424;2023-03-14T13:36:35;5.20;;;0.83;;
71771;SDS011;59606;52.138;5.424;2023-03-14T13:39:02;3.65;;;0.60;;
71771;SDS011;59606;52.138;5.424;2023-03-14T13:41:30;4.57;;;0.50;;
71771;SDS011;59606;52.138;5.424;2023-03-14T13:43:58;4.32;;;0.57;;
71771;SDS011;59606;52.138;5.424;2023-03-14T13:46:29;5.82;;;0.60;;
71771;SDS011;59606;52.138;5.424;2023-03-14T13:49:01;6.43;;;0.47;;
71771;SDS011;59606;52.138;5.424;2023-03-14T13:51:30;3.38;;;0.43;;
71771;SDS011;59606;52.138;5.424;2023-03-14T13:54:01;6.40;;;0.90;;
71771;SDS011;59606;52.138;5.424;2023-03-14T13:56:31;4.80;;;1.02;;
71771;SDS011;59606;52.138;5.424;2023-03-14T13:58:59;4.88;;;0.65;;
71771;SDS011;59606;52.138;5.424;2023-03-14T14:01:32;4.63;;;0.50;;
71771;SDS011;59606;52.138;5.424;2023-03-14T14:04:22;9.07;;;0.65;;
71771;SDS011;59606;52.138;5.424;2023-03-14T14:06:58;8.82;;;0.80;;
71771;SDS011;59606;52.138;5.424;2023-03-14T14:09:27;8.18;;;0.80;;
71771;SDS011;59606;52.138;5.424;2023-03-14T14:14:49;4.70;;;0.60;;
71771;SDS011;59606;52.138;5.424;2023-03-14T14:17:24;10.95;;;1.00;;
71771;SDS011;59606;52.138;5.424;2023-03-14T14:19:54;4.07;;;0.90;;
71771;SDS011;59606;52.138;5.424;2023-03-14T14:22:22;4.47;;;0.80;;
71771;SDS011;59606;52.138;5.424;2023-03-14T14:24:49;4.18;;;0.43;;
71771;SDS011;59606;52.138;5.424;2023-03-14T14:29:58;7.13;;;0.65;;
71771;SDS011;59606;52.138;5.424;2023-03-14T14:32:34;6.28;;;0.70;;
71771;SDS011;59606;52.138;5.424;2023-03-14T14:35:05;10.23;;;0.65;;
71771;SDS011;59606;52.138;5.424;2023-03-14T14:37:34;4.03;;;0.50;;
71771;SDS011;59606;52.138;5.424;2023-03-14T14:40:08;5.93;;;1.60;;
71771;SDS011;59606;52.138;5.424;2023-03-14T14:42:42;3.78;;;0.68;;
71771;SDS011;59606;52.138;5.424;2023-03-14T14:45:12;5.88;;;0.88;;
71771;SDS011;59606;52.138;5.424;2023-03-14T14:47:49;4.00;;;0.68;;
71771;SDS011;59606;52.138;5.424;2023-03-14T14:50:28;6.95;;;1.42;;
71771;SDS011;59606;52.138;5.424;2023-03-14T14:53:01;7.50;;;1.07;;
71771;SDS011;59606;52.138;5.424;2023-03-14T14:55:33;8.70;;;0.80;;
71771;SDS011;59606;52.138;5.424;2023-03-14T14:58:18;4.60;;;0.50;;
71771;SDS011;59606;52.138;5.424;2023-03-14T15:01:38;2.30;;;0.55;;
71771;SDS011;59606;52.138;5.424;2023-03-14T15:03:47;5.22;;;0.80;;
71771;SDS011;59606;52.138;5.424;2023-03-14T15:06:16;4.03;;;0.50;;
71771;SDS011;59606;52.138;5.424;2023-03-14T15:08:45;2.70;;;0.88;;
71771;SDS011;59606;52.138;5.424;2023-03-14T15:11:15;10.75;;;0.80;;
71771;SDS011;59606;52.138;5.424;2023-03-14T15:13:44;2.63;;;0.75;;
71771;SDS011;59606;52.138;5.424;2023-03-14T15:16:11;5.63;;;0.55;;
71771;SDS011;59606;52.138;5.424;2023-03-14T15:18:39;5.40;;;0.77;;
71771;SDS011;59606;52.138;5.424;2023-03-14T15:21:05;4.32;;;0.50;;
71771;SDS011;59606;52.138;5.424;2023-03-14T15:23:32;9.57;;;0.80;;
71771;SDS011;59606;52.138;5.424;2023-03-14T15:25:59;6.15;;;0.88;;
71771;SDS011;59606;52.138;5.424;2023-03-14T15:28:26;4.22;;;0.65;;
71771;SDS011;59606;52.138;5.424;2023-03-14T15:30:56;6.33;;;0.60;;
71771;SDS011;59606;52.138;5.424;2023-03-14T15:33:24;6.55;;;0.98;;
71771;SDS011;59606;52.138;5.424;2023-03-14T15:35:52;6.05;;;0.85;;
71771;SDS011;59606;52.138;5.424;2023-03-14T15:38:19;4.10;;;0.60;;
71771;SDS011;59606;52.138;5.424;2023-03-14T15:40:50;5.47;;;0.57;;
71771;SDS011;59606;52.138;5.424;2023-03-14T15:43:18;3.63;;;0.70;;
71771;SDS011;59606;52.138;5.424;2023-03-14T15:45:45;7.00;;;0.85;;
71771;SDS011;59606;52.138;5.424;2023-03-14T15:48:16;6.13;;;1.02;;
71771;SDS011;59606;52.138;5.424;2023-03-14T15:50:44;6.85;;;0.70;;
71771;SDS011;59606;52.138;5.424;2023-03-14T15:53:14;7.95;;;1.00;;
71771;SDS011;59606;52.138;5.424;2023-03-14T15:55:40;5.87;;;0.60;;
71771;SDS011;59606;52.138;5.424;2023-03-14T15:58:09;3.60;;;0.60;;
71771;SDS011;59606;52.138;5.424;2023-03-14T16:00:46;6.22;;;0.77;;
71771;SDS011;59606;52.138;5.424;2023-03-14T16:03:13;1.73;;;0.73;;
71771;SDS011;59606;52.138;5.424;2023-03-14T16:05:39;4.47;;;0.82;;
71771;SDS011;59606;52.138;5.424;2023-03-14T16:08:07;9.40;;;0.70;;
71771;SDS011;59606;52.138;5.424;2023-03-14T16:10:33;5.15;;;0.82;;